Time;durP1;ratioP1;P1;durP2;ratioP2;P2;SDS_P1;SDS_P2;PMS_P1;PMS_P2;Temp;Humidity;BMP_temperature;BMP_pressure;BME280_temperature;BME280_humidity;BME280_pressure;Samples;Min_cycle;Max_cycle;Signal;HPM_P1;HPM_P2
2023/09/23 00:00:34;;;;;;;1.50;1.40;;;;;;;18.93;59.90;98281.50;6866893;28;20232;-85
2023/09/23 00:03:56;;;;;;;4.90;1.70;;;;;;;19.06;59.49;98287.28;6867632;28;20236;-85
2023/09/23 00:07:18;;;;;;;2.77;2.07;;;;;;;18.95;61.01;98296.53;6867769;28;20213;-85
2023/09/23 00:10:41;;;;;;;2.67;1.80;;;;;;;19.11;59.83;98300.91;6866783;28;20215;-85
2023/09/23 00:14:04;;;;;;;2.40;1.90;;;;;;;18.70;61.83;98291.00;6866365;28;20330;-85
2023/09/23 00:17:27;;;;;;;2.37;1.60;;;;;;;18.70;60.38;98269.16;6866838;28;20247;-84
2023/09/23 00:20:48;;;;;;;3.50;1.70;;;;;;;18.69;60.91;98288.56;6866167;28;20217;-84
2023/09/23 00:24:10;;;;;;;2.53;2.20;;;;;;;18.46;61.75;98311.69;6866766;28;20247;-84
2023/09/23 00:27:34;;;;;;;3.00;1.93;;;;;;;18.49;61.77;98313.88;6866878;28;20367;-84
2023/09/23 00:31:03;;;;;;;1.87;1.47;;;;;;;18.73;59.98;98301.41;6865921;28;20213;-84
2023/09/23 00:34:24;;;;;;;2.97;1.93;;;;;;;18.69;59.72;98303.03;6865944;28;20268;-85
2023/09/23 00:37:48;;;;;;;2.50;1.60;;;;;;;18.61;60.67;98316.38;6867075;28;20283;-84
2023/09/23 00:41:09;;;;;;;2.27;1.70;;;;;;;18.63;59.56;98300.56;6865726;28;20217;-84
2023/09/23 00:44:32;;;;;;;1.80;1.70;;;;;;;18.39;59.73;98299.38;6866422;28;20319;-84
2023/09/23 00:47:55;;;;;;;2.07;1.80;;;;;;;18.49;60.28;98300.25;6866519;28;20303;-84
2023/09/23 00:51:18;;;;;;;4.37;2.17;;;;;;;18.64;59.70;98291.28;6865421;28;20344;-85
2023/09/23 00:54:41;;;;;;;1.50;1.40;;;;;;;18.22;60.93;98285.09;6866499;28;20587;-85
2023/09/23 00:58:03;;;;;;;2.40;1.30;;;;;;;18.26;59.07;98297.09;6866728;28;20200;-85
2023/09/23 01:01:26;;;;;;;1.53;1.43;;;;;;;18.28;59.03;98284.03;6861428;28;20212;-84
2023/09/23 01:04:50;;;;;;;1.47;1.37;;;;;;;18.51;58.42;98283.59;6842388;28;20263;-84
2023/09/23 01:08:12;;;;;;;1.20;1.20;;;;;;;18.52;57.54;98285.22;6872911;28;20244;-84
2023/09/23 01:11:35;;;;;;;1.47;1.30;;;;;;;18.12;57.44;98241.38;6866716;28;20215;-84
2023/09/23 01:15:04;;;;;;;1.87;1.40;;;;;;;18.13;58.20;98290.22;6862464;28;20689;-84
2023/09/23 01:18:28;;;;;;;1.90;1.50;;;;;;;18.01;58.29;98250.59;6865322;28;20684;-84
2023/09/23 01:21:50;;;;;;;1.63;1.53;;;;;;;18.54;56.59;98302.16;6863767;28;20575;-84
2023/09/23 01:25:13;;;;;;;1.30;1.20;;;;;;;18.49;56.49;98311.16;6864841;28;20239;-84
2023/09/23 01:28:34;;;;;;;1.80;1.33;;;;;;;18.20;57.98;98329.00;6865039;28;20249;-84
2023/09/23 01:32:07;;;;;;;3.57;1.40;;;;;;;18.28;56.95;98344.88;6863824;28;20968;-85
2023/09/23 01:35:31;;;;;;;1.40;1.30;;;;;;;17.63;56.50;98330.00;6865102;28;20731;-86
2023/09/23 01:38:53;;;;;;;2.30;1.60;;;;;;;17.67;56.64;98355.66;6861953;28;20251;-85
2023/09/23 01:42:16;;;;;;;2.70;1.50;;;;;;;17.94;55.27;98346.31;6863943;28;20232;-84
2023/09/23 01:45:38;;;;;;;4.07;1.47;;;;;;;17.46;56.16;98346.47;6864211;28;20345;-85
2023/09/23 01:49:01;;;;;;;1.50;1.40;;;;;;;17.56;54.45;98324.78;6864225;28;20212;-84
2023/09/23 01:52:23;;;;;;;1.60;1.40;;;;;;;16.62;55.69;98235.66;6863482;28;20250;-84
2023/09/23 01:55:45;;;;;;;1.70;1.50;;;;;;;17.33;54.58;98278.75;6863926;28;20318;-84
2023/09/23 01:59:09;;;;;;;2.43;1.53;;;;;;;17.80;54.24;98355.22;6864103;28;20214;-84
2023/09/23 02:02:31;;;;;;;1.43;1.00;;;;;;;17.13;54.39;98305.00;6863260;28;20282;-84
2023/09/23 02:05:53;;;;;;;2.60;1.57;;;;;;;17.37;53.77;98298.13;6863758;28;20288;-84
2023/09/23 02:09:15;;;;;;;2.27;1.20;;;;;;;17.04;54.60;98307.38;6863883;28;20224;-85
2023/09/23 02:12:36;;;;;;;1.60;1.30;;;;;;;17.60;53.87;98344.16;6863296;28;20633;-84
2023/09/23 02:16:01;;;;;;;1.60;1.17;;;;;;;17.72;53.49;98369.31;6863204;28;20266;-84
2023/09/23 02:19:24;;;;;;;1.40;1.30;;;;;;;17.63;53.31;98374.44;6862838;28;20214;-84
2023/09/23 02:22:46;;;;;;;2.47;1.40;;;;;;;17.36;53.98;98381.81;6862625;28;20708;-85
2023/09/23 02:26:07;;;;;;;1.43;1.33;;;;;;;17.36;55.12;98398.16;6862986;28;20302;-85
2023/09/23 02:29:29;;;;;;;3.00;1.33;;;;;;;17.59;54.69;98397.88;6863124;28;20292;-85
2023/09/23 02:32:52;;;;;;;1.30;1.30;;;;;;;17.47;55.08;98390.94;6861656;28;20232;-86
2023/09/23 02:36:14;;;;;;;1.33;1.23;;;;;;;17.26;54.47;98398.06;6863037;28;20440;-85
2023/09/23 02:39:35;;;;;;;2.00;1.53;;;;;;;17.66;54.04;98398.47;6862572;28;20216;-85
2023/09/23 02:42:57;;;;;;;1.23;1.20;;;;;;;17.47;54.61;98405.41;6862108;28;20676;-85
2023/09/23 02:46:19;;;;;;;1.33;1.27;;;;;;;17.67;55.07;98391.09;6863135;28;20205;-85
2023/09/23 02:49:44;;;;;;;2.70;1.50;;;;;;;17.69;56.43;98422.47;6870337;28;20308;-85
2023/09/23 02:53:06;;;;;;;1.23;1.17;;;;;;;16.94;56.92;98410.81;6864169;28;20279;-84
2023/09/23 02:56:28;;;;;;;2.30;1.20;;;;;;;16.03;59.63;98418.78;6869878;28;20228;-83
2023/09/23 02:59:56;;;;;;;1.57;1.47;;;;;;;16.78;56.54;98372.75;6872256;28;20200;-82
2023/09/23 03:03:19;;;;;;;2.60;1.50;;;;;;;17.38;56.84;98427.91;6866628;28;20239;-82
2023/09/23 03:06:43;;;;;;;1.57;1.47;;;;;;;17.55;56.19;98425.88;6866933;28;20228;-83
2023/09/23 03:10:12;;;;;;;1.93;1.37;;;;;;;17.77;54.97;98421.19;6866531;28;20211;-82
2023/09/23 03:13:34;;;;;;;1.30;1.20;;;;;;;17.61;54.67;98435.75;6865387;28;20239;-82
2023/09/23 03:16:57;;;;;;;3.03;1.60;;;;;;;17.15;55.92;98452.72;6865687;28;20317;-83
2023/09/23 03:20:22;;;;;;;1.60;1.50;;;;;;;17.01;56.19;98424.19;6865805;28;20246;-83
2023/09/23 03:23:44;;;;;;;1.33;1.20;;;;;;;17.08;56.55;98458.34;6864228;28;20231;-83
2023/09/23 03:27:06;;;;;;;2.07;1.53;;;;;;;16.75;57.14;98449.50;6863781;28;20215;-83
2023/09/23 03:30:28;;;;;;;1.60;1.50;;;;;;;16.82;56.12;98431.88;6865190;28;20269;-82
2023/09/23 03:33:50;;;;;;;1.97;1.30;;;;;;;16.85;57.28;98460.50;6863883;28;20263;-82
2023/09/23 03:37:12;;;;;;;1.80;1.30;;;;;;;16.31;58.16;98473.06;6862189;28;20273;-83
2023/09/23 03:40:34;;;;;;;2.60;1.70;;;;;;;16.01;59.01;98490.78;6864399;28;20304;-83
2023/09/23 03:43:56;;;;;;;2.40;1.50;;;;;;;16.30;58.19;98478.75;6864013;28;20234;-84
2023/09/23 03:47:17;;;;;;;1.20;1.20;;;;;;;16.71;57.54;98490.00;6864069;28;20667;-83
2023/09/23 03:50:39;;;;;;;1.53;1.40;;;;;;;16.25;57.19;98437.88;6863630;28;20214;-85
2023/09/23 03:54:01;;;;;;;6.33;1.53;;;;;;;16.31;57.25;98462.19;6864285;28;20225;-83
2023/09/23 03:57:23;;;;;;;2.47;1.80;;;;;;;16.98;55.60;98482.72;6863510;28;20331;-83
2023/09/23 04:00:45;;;;;;;1.33;1.27;;;;;;;16.66;56.66;98483.66;6863194;28;20210;-83
2023/09/23 04:04:10;;;;;;;1.47;1.37;;;;;;;16.75;55.87;98493.06;6865061;28;20321;-83
2023/09/23 04:07:33;;;;;;;1.57;1.47;;;;;;;16.59;56.12;98485.75;6863767;28;20197;-83
2023/09/23 04:10:54;;;;;;;2.97;1.43;;;;;;;16.82;55.71;98477.34;6862728;28;20209;-83
2023/09/23 04:14:17;;;;;;;2.63;1.20;;;;;;;16.65;56.04;98485.56;6862435;28;20368;-83
2023/09/23 04:17:39;;;;;;;2.50;1.63;;;;;;;16.73;56.19;98487.00;6867637;28;20282;-83
2023/09/23 04:21:02;;;;;;;1.43;1.33;;;;;;;15.94;58.45;98492.84;6862823;28;20294;-83
2023/09/23 04:24:23;;;;;;;2.33;1.40;;;;;;;15.96;57.17;98466.25;6849918;28;20227;-83
2023/09/23 04:27:47;;;;;;;1.50;1.40;;;;;;;15.56;59.09;98487.28;6837103;29;20695;-82
2023/09/23 04:31:12;;;;;;;1.47;1.37;;;;;;;15.86;58.10;98502.25;6858898;28;20215;-83
2023/09/23 04:34:36;;;;;;;1.70;1.40;;;;;;;15.98;58.09;98511.16;6849260;28;20234;-83
2023/09/23 04:37:58;;;;;;;1.40;1.23;;;;;;;15.39;59.10;98500.03;6863109;28;20244;-83
2023/09/23 04:41:20;;;;;;;1.40;1.30;;;;;;;15.29;59.50;98491.66;6862893;28;20203;-83
2023/09/23 04:44:42;;;;;;;1.27;1.17;;;;;;;15.43;59.30;98512.03;6867809;28;20313;-83
2023/09/23 04:48:06;;;;;;;1.73;1.47;;;;;;;15.11;59.88;98521.72;6854993;28;20222;-83
2023/09/23 04:51:27;;;;;;;2.00;1.50;;;;;;;15.18;60.49;98517.78;6840668;29;20219;-83
2023/09/23 04:54:53;;;;;;;1.57;1.47;;;;;;;15.15;60.13;98514.75;6843217;28;20325;-83
2023/09/23 04:58:14;;;;;;;1.73;1.47;;;;;;;15.89;58.67;98506.38;6851144;28;20203;-83
2023/09/23 05:01:36;;;;;;;4.00;1.20;;;;;;;16.50;57.02;98511.72;6839346;29;20609;-83
2023/09/23 05:04:59;;;;;;;1.53;1.43;;;;;;;16.27;56.76;98526.31;6840379;29;20326;-83
2023/09/23 05:08:20;;;;;;;1.97;1.57;;;;;;;16.31;57.33;98505.72;6841035;28;20210;-83
2023/09/23 05:11:42;;;;;;;1.70;1.60;;;;;;;16.29;57.63;98531.53;6867142;28;20717;-83
2023/09/23 05:15:04;;;;;;;1.50;1.40;;;;;;;16.59;57.10;98523.84;6866485;28;20234;-83
2023/09/23 05:18:25;;;;;;;1.50;1.40;;;;;;;16.39;56.84;98548.03;6866267;28;20634;-84
2023/09/23 05:21:49;;;;;;;1.53;1.33;;;;;;;16.59;56.23;98551.06;6865794;28;20344;-85
2023/09/23 05:25:13;;;;;;;2.30;1.43;;;;;;;16.54;56.02;98537.38;6866071;28;20230;-86
2023/09/23 05:28:34;;;;;;;1.30;1.20;;;;;;;16.44;55.55;98553.53;6861452;28;20346;-85
2023/09/23 05:31:57;;;;;;;3.27;1.57;;;;;;;16.12;57.14;98549.72;6865720;28;20269;-85
2023/09/23 05:35:18;;;;;;;1.80;1.20;;;;;;;16.34;57.28;98556.09;6866594;28;20254;-85
2023/09/23 05:38:41;;;;;;;2.13;1.53;;;;;;;16.15;57.52;98560.13;6858736;28;20288;-85
2023/09/23 05:42:02;;;;;;;1.40;1.30;;;;;;;16.82;56.25;98573.44;6864294;28;20325;-85
2023/09/23 05:45:24;;;;;;;1.43;1.33;;;;;;;16.73;56.31;98565.97;6866526;28;20755;-85
2023/09/23 05:48:47;;;;;;;1.57;1.47;;;;;;;16.75;56.56;98583.69;6866067;28;20206;-85
2023/09/23 05:52:10;;;;;;;1.57;1.40;;;;;;;16.99;55.75;98581.63;6866104;28;20245;-86
2023/09/23 05:55:33;;;;;;;1.40;1.30;;;;;;;16.51;57.25;98576.00;6866723;28;20233;-86
2023/09/23 05:58:54;;;;;;;2.73;1.50;;;;;;;16.78;55.69;98541.53;6864751;28;20254;-85
2023/09/23 06:02:16;;;;;;;1.83;1.73;;;;;;;17.05;56.07;98600.47;6865229;28;20229;-85
2023/09/23 06:05:52;;;;;;;1.87;1.67;;;;;;;16.21;56.01;98526.50;6867308;28;20298;-83
2023/09/23 06:09:15;;;;;;;1.70;1.60;;;;;;;16.72;55.93;98613.34;6760655;29;20329;-84
2023/09/23 06:12:38;;;;;;;2.20;1.70;;;;;;;15.94;57.78;98579.88;6774719;29;20227;-85
2023/09/23 06:16:03;;;;;;;2.30;1.50;;;;;;;16.72;56.57;98630.50;6775861;29;20758;-84
2023/09/23 06:19:25;;;;;;;1.97;1.77;;;;;;;16.87;56.58;98636.16;6778852;29;20212;-83
2023/09/23 06:22:47;;;;;;;1.70;1.43;;;;;;;16.44;57.24;98624.28;6756511;29;20233;-84
2023/09/23 06:26:10;;;;;;;1.67;1.40;;;;;;;17.12;55.57;98633.84;6764757;29;20268;-85
2023/09/23 06:29:33;;;;;;;1.93;1.30;;;;;;;17.36;54.47;98623.53;6756165;29;20208;-81
2023/09/23 06:32:54;;;;;;;2.50;2.30;;;;;;;17.35;54.11;98624.59;6756241;29;20229;-85
2023/09/23 06:36:16;;;;;;;1.57;1.40;;;;;;;17.55;54.82;98649.44;6754914;29;20325;-84
2023/09/23 06:39:37;;;;;;;1.70;1.60;;;;;;;17.92;53.00;98615.78;6755611;29;20219;-83
2023/09/23 06:42:59;;;;;;;1.73;1.37;;;;;;;18.23;51.43;98627.84;6762034;29;20232;-83
2023/09/23 06:46:22;;;;;;;1.77;1.33;;;;;;;17.49;53.77;98651.28;6836549;28;20691;-83
2023/09/23 06:49:43;;;;;;;1.90;1.70;;;;;;;17.24;54.71;98650.91;6868423;28;20312;-82
2023/09/23 06:53:05;;;;;;;1.37;1.33;;;;;;;18.13;53.37;98652.31;6842410;28;20268;-84
2023/09/23 06:56:26;;;;;;;2.50;1.50;;;;;;;18.02;52.82;98656.00;6866187;28;20223;-84
2023/09/23 06:59:49;;;;;;;1.63;1.53;;;;;;;17.66;53.02;98651.19;6864791;28;20304;-84
2023/09/23 07:03:12;;;;;;;1.33;1.23;;;;;;;18.30;52.61;98674.84;6863190;28;20225;-83
2023/09/23 07:06:33;;;;;;;1.47;1.37;;;;;;;18.35;51.96;98677.69;6862569;28;20266;-83
2023/09/23 07:09:55;;;;;;;1.80;1.70;;;;;;;18.43;51.65;98680.78;6863097;28;20209;-82
2023/09/23 07:13:16;;;;;;;4.10;1.63;;;;;;;18.18;51.34;98682.38;6864162;28;20237;-82
2023/09/23 07:16:38;;;;;;;1.33;1.23;;;;;;;18.65;51.20;98683.44;6863733;28;20283;-82
2023/09/23 07:20:01;;;;;;;1.73;1.50;;;;;;;19.26;48.98;98675.47;6863173;28;20287;-82
2023/09/23 07:23:22;;;;;;;4.13;1.40;;;;;;;18.97;50.63;98618.66;6862500;28;20274;-83
2023/09/23 07:26:44;;;;;;;1.83;1.40;;;;;;;19.83;47.77;98672.75;6850726;28;20340;-82
2023/09/23 07:30:07;;;;;;;1.50;1.40;;;;;;;19.84;48.17;98680.72;6862462;28;20213;-81
2023/09/23 07:33:28;;;;;;;1.53;1.20;;;;;;;20.05;47.87;98682.41;6880617;28;20311;-80
2023/09/23 07:36:51;;;;;;;1.33;1.23;;;;;;;20.35;46.40;98700.91;6889505;28;20317;-82
2023/09/23 07:40:13;;;;;;;1.53;1.20;;;;;;;20.47;46.94;98693.25;6880191;28;20264;-84
2023/09/23 07:43:34;;;;;;;2.10;1.77;;;;;;;20.77;45.24;98708.63;6870393;28;20373;-83
2023/09/23 07:46:56;;;;;;;2.27;2.07;;;;;;;20.90;45.30;98717.44;6867574;28;20339;-83
2023/09/23 07:50:26;;;;;;;3.10;1.30;;;;;;;21.43;45.27;98717.72;6863530;28;20304;-84
2023/09/23 07:53:49;;;;;;;1.50;1.30;;;;;;;20.77;45.36;98726.19;6859673;28;20363;-83
2023/09/23 07:57:10;;;;;;;1.80;1.47;;;;;;;20.94;44.81;98718.56;6879958;28;20266;-83
2023/09/23 08:00:32;;;;;;;1.83;1.60;;;;;;;21.39;44.18;98722.09;6864967;28;20348;-83
2023/09/23 08:03:53;;;;;;;3.33;1.30;;;;;;;21.98;41.72;98726.66;6876594;28;20866;-84
2023/09/23 08:07:15;;;;;;;1.73;1.40;;;;;;;21.44;43.34;98706.47;6861342;28;20245;-84
2023/09/23 08:10:38;;;;;;;1.63;1.47;;;;;;;21.81;43.19;98750.84;6861089;28;20262;-84
2023/09/23 08:13:59;;;;;;;1.53;1.43;;;;;;;21.20;42.99;98759.41;6860538;28;20275;-84
2023/09/23 08:17:21;;;;;;;2.47;1.40;;;;;;;21.77;41.73;98760.75;6864117;28;20232;-84
2023/09/23 08:20:43;;;;;;;1.87;1.23;;;;;;;21.61;42.02;98775.56;6874723;28;20243;-84
2023/09/23 08:24:05;;;;;;;1.97;1.50;;;;;;;21.22;42.28;98707.84;6875230;28;20257;-85
2023/09/23 08:27:28;;;;;;;1.20;1.10;;;;;;;22.05;41.87;98762.88;6866232;28;20300;-85
2023/09/23 08:30:50;;;;;;;1.70;1.30;;;;;;;22.29;41.07;98758.38;6865632;28;20301;-85
2023/09/23 08:34:11;;;;;;;1.70;1.20;;;;;;;22.12;41.22;98779.88;6865678;28;20230;-84
2023/09/23 08:37:33;;;;;;;1.27;1.13;;;;;;;22.67;41.64;98771.38;6865726;28;20312;-84
2023/09/23 08:40:54;;;;;;;2.33;1.33;;;;;;;22.84;39.75;98777.34;6863271;28;20300;-85
2023/09/23 08:44:20;;;;;;;1.63;1.40;;;;;;;22.62;40.31;98782.44;6865355;28;20319;-85
2023/09/23 08:47:43;;;;;;;2.87;1.10;;;;;;;22.75;39.30;98707.59;6865188;28;20205;-85
2023/09/23 08:51:07;;;;;;;2.03;1.50;;;;;;;23.42;38.40;98789.34;6864778;28;20344;-84
2023/09/23 08:54:29;;;;;;;3.33;1.47;;;;;;;22.47;38.59;98784.41;6865871;28;20708;-85
2023/09/23 08:57:51;;;;;;;2.20;1.50;;;;;;;23.27;37.71;98784.78;6863480;28;20368;-84
2023/09/23 09:01:14;;;;;;;2.13;1.30;;;;;;;23.61;38.11;98793.81;6865572;28;20211;-83
2023/09/23 09:04:36;;;;;;;2.83;1.27;;;;;;;23.94;36.79;98770.13;6865809;28;20218;-84
2023/09/23 09:07:58;;;;;;;2.20;1.37;;;;;;;23.65;37.52;98794.91;6865864;28;20355;-87
2023/09/23 09:11:23;;;;;;;2.17;1.40;;;;;;;24.35;35.96;98774.88;6866302;28;20249;-84
2023/09/23 09:14:49;;;;;;;3.13;1.87;;;;;;;24.05;35.73;98788.19;6864410;28;20238;-82
2023/09/23 09:18:12;;;;;;;2.67;1.23;;;;;;;24.21;36.08;98789.66;6865867;28;20902;-83
2023/09/23 09:21:34;;;;;;;1.70;1.17;;;;;;;23.76;34.87;98759.81;6865346;28;20314;-82
2023/09/23 09:24:55;;;;;;;2.30;1.60;;;;;;;23.75;36.23;98771.94;6865477;28;20734;-83
2023/09/23 09:28:19;;;;;;;1.90;1.50;;;;;;;23.65;35.98;98786.63;6865210;28;20216;-82
2023/09/23 09:31:42;;;;;;;3.93;1.77;;;;;;;24.35;35.74;98793.34;6863384;28;20255;-82
2023/09/23 09:35:06;;;;;;;2.17;1.60;;;;;;;24.48;34.05;98785.19;6864058;28;20212;-83
2023/09/23 09:38:29;;;;;;;1.40;1.30;;;;;;;24.12;35.84;98770.19;6866189;28;20838;-81
2023/09/23 09:41:53;;;;;;;2.10;1.20;;;;;;;24.36;33.01;98772.97;6866725;28;20237;-81
2023/09/23 09:45:16;;;;;;;1.73;1.50;;;;;;;24.15;33.80;98788.91;6868454;28;20210;-84
2023/09/23 09:48:39;;;;;;;2.00;1.40;;;;;;;24.43;33.81;98785.25;6869281;28;20645;-84
2023/09/23 09:52:03;;;;;;;2.93;1.70;;;;;;;23.53;35.07;98785.38;6863606;28;20205;-85
2023/09/23 09:55:25;;;;;;;3.73;1.30;;;;;;;23.42;35.46;98781.88;6865021;28;20268;-84
2023/09/23 09:58:49;;;;;;;2.53;1.50;;;;;;;24.54;33.27;98783.19;6867648;28;20230;-85
2023/09/23 10:02:13;;;;;;;2.00;1.27;;;;;;;24.23;34.54;98787.44;6881509;28;20249;-83
2023/09/23 10:05:35;;;;;;;2.07;1.50;;;;;;;24.10;34.34;98791.72;6869666;28;20211;-84
2023/09/23 10:08:58;;;;;;;2.60;1.50;;;;;;;24.34;33.83;98802.72;6863564;28;20218;-83
2023/09/23 10:12:24;;;;;;;1.63;1.10;;;;;;;23.75;33.62;98788.47;6863536;28;20311;-86
2023/09/23 10:15:46;;;;;;;3.00;1.40;;;;;;;24.30;33.88;98799.75;6869298;28;20196;-85
2023/09/23 10:19:11;;;;;;;1.53;1.40;;;;;;;24.18;33.23;98746.19;6889656;28;20371;-85
2023/09/23 10:22:32;;;;;;;2.07;1.30;;;;;;;24.94;32.80;98777.97;6888605;28;20382;-85
2023/09/23 10:25:55;;;;;;;2.13;1.50;;;;;;;24.37;34.53;98739.56;6902077;28;20268;-85
2023/09/23 10:29:19;;;;;;;1.67;1.40;;;;;;;24.83;32.61;98804.03;6889244;28;20207;-86
2023/09/23 10:32:44;;;;;;;2.17;1.30;;;;;;;25.71;31.43;98798.56;6889006;28;20268;-86
2023/09/23 10:36:07;;;;;;;3.03;1.50;;;;;;;26.22;29.89;98744.81;6889543;28;20878;-86
2023/09/23 10:39:28;;;;;;;2.70;1.47;;;;;;;25.15;31.80;98784.84;6889178;28;20207;-85
2023/09/23 10:42:51;;;;;;;2.93;1.43;;;;;;;24.98;32.01;98765.22;6888601;28;20228;-86
2023/09/23 10:46:13;;;;;;;1.80;1.30;;;;;;;24.80;32.14;98798.31;6888650;28;20215;-86
2023/09/23 10:49:35;;;;;;;2.10;1.30;;;;;;;24.47;33.22;98796.50;6874160;28;20289;-86
2023/09/23 10:52:57;;;;;;;1.63;1.40;;;;;;;23.82;32.68;98788.94;6878152;28;20268;-86
2023/09/23 10:56:21;;;;;;;3.43;1.40;;;;;;;23.48;33.71;98797.25;6888654;28;20212;-85
2023/09/23 10:59:44;;;;;;;2.73;1.50;;;;;;;23.76;32.75;98732.28;6888701;28;20273;-86
2023/09/23 11:03:06;;;;;;;2.13;1.40;;;;;;;24.24;32.12;98728.47;6887660;28;20229;-86
2023/09/23 11:06:28;;;;;;;1.57;1.40;;;;;;;24.19;32.98;98783.63;6888052;28;20684;-86
2023/09/23 11:09:50;;;;;;;3.30;1.70;;;;;;;23.27;34.03;98753.69;6870641;28;20234;-85
2023/09/23 11:13:12;;;;;;;2.80;1.40;;;;;;;23.77;34.50;98806.34;6864834;28;20248;-86
2023/09/23 11:16:35;;;;;;;2.00;1.60;;;;;;;23.68;34.22;98794.34;6862300;28;20317;-86
2023/09/23 11:19:58;;;;;;;2.47;1.90;;;;;;;23.23;35.80;98788.38;6861141;28;20294;-86
2023/09/23 11:23:19;;;;;;;3.53;1.50;;;;;;;23.48;34.98;98810.22;6860152;28;20259;-86
2023/09/23 11:26:41;;;;;;;2.30;1.40;;;;;;;23.18;35.09;98799.44;6861060;28;20249;-86
2023/09/23 11:30:05;;;;;;;1.93;1.50;;;;;;;23.10;36.90;98814.59;6860547;28;20330;-86
2023/09/23 11:33:27;;;;;;;2.63;1.30;;;;;;;23.53;35.86;98827.50;6860085;28;20587;-86
2023/09/23 11:36:49;;;;;;;2.87;1.53;;;;;;;23.31;36.03;98816.09;6860684;28;20268;-86
2023/09/23 11:40:12;;;;;;;2.00;1.40;;;;;;;22.53;35.48;98810.78;6860541;28;20215;-86
2023/09/23 11:43:33;;;;;;;4.13;1.60;;;;;;;22.49;36.45;98813.25;6860869;28;20242;-86
2023/09/23 11:46:55;;;;;;;1.73;1.63;;;;;;;23.11;34.83;98760.38;6860939;28;20691;-86
2023/09/23 11:50:18;;;;;;;2.00;1.30;;;;;;;22.62;35.87;98806.34;6860631;28;20238;-86
2023/09/23 11:53:41;;;;;;;2.30;2.07;;;;;;;23.89;34.05;98806.81;6860347;28;20265;-85
2023/09/23 11:57:02;;;;;;;2.47;1.50;;;;;;;23.87;33.96;98808.19;6887737;28;20231;-85
2023/09/23 12:00:24;;;;;;;1.83;1.70;;;;;;;24.30;33.26;98808.00;6863852;28;20343;-85
2023/09/23 12:03:46;;;;;;;1.40;1.30;;;;;;;25.27;31.83;98796.25;6862162;28;20231;-86
2023/09/23 12:07:11;;;;;;;4.87;2.40;;;;;;;25.10;32.49;98803.38;6863008;28;20354;-86
2023/09/23 12:10:32;;;;;;;1.60;1.40;;;;;;;24.88;31.83;98743.28;6860985;28;20204;-86
2023/09/23 12:13:54;;;;;;;2.60;1.57;;;;;;;25.41;31.56;98808.16;6860537;28;20370;-86
2023/09/23 12:17:16;;;;;;;3.77;1.40;;;;;;;25.10;32.07;98812.50;6861345;28;20267;-86
2023/09/23 12:20:37;;;;;;;3.43;1.73;;;;;;;24.58;33.25;98803.56;6860793;28;20203;-86
2023/09/23 12:24:00;;;;;;;2.07;1.40;;;;;;;24.94;32.43;98802.78;6859643;28;20234;-85
2023/09/23 12:27:22;;;;;;;1.50;1.30;;;;;;;24.87;32.32;98810.63;6859173;28;20201;-86
2023/09/23 12:30:44;;;;;;;3.00;1.40;;;;;;;23.95;33.50;98827.69;6880901;28;20299;-86
2023/09/23 12:34:05;;;;;;;2.30;1.50;;;;;;;24.46;32.83;98823.25;6886869;28;20297;-86
2023/09/23 12:37:27;;;;;;;4.10;1.47;;;;;;;23.92;33.35;98759.41;6886574;28;20316;-86
2023/09/23 12:40:50;;;;;;;3.37;1.70;;;;;;;24.19;33.77;98831.28;6887443;28;20214;-86
2023/09/23 12:44:11;;;;;;;1.50;1.10;;;;;;;23.95;31.72;98826.88;6891363;28;20320;-85
2023/09/23 12:47:33;;;;;;;2.97;1.53;;;;;;;24.21;33.34;98826.31;6892150;28;20210;-86
2023/09/23 12:50:54;;;;;;;3.07;1.63;;;;;;;24.22;34.74;98819.69;6878541;28;20271;-85
2023/09/23 12:54:16;;;;;;;4.00;1.47;;;;;;;23.79;34.92;98815.13;6862824;28;20226;-85
2023/09/23 12:57:39;;;;;;;2.53;1.43;;;;;;;23.69;35.79;98809.75;6862731;28;20261;-85
2023/09/23 13:01:00;;;;;;;1.90;1.40;;;;;;;22.87;34.49;98743.78;6861277;28;20298;-87
2023/09/23 13:04:22;;;;;;;4.10;1.50;;;;;;;23.14;34.86;98754.31;6867221;28;20223;-85
2023/09/23 13:07:43;;;;;;;1.43;1.33;;;;;;;23.70;35.55;98835.31;6869424;28;20210;-86
2023/09/23 13:11:05;;;;;;;3.67;1.57;;;;;;;22.99;36.28;98774.50;6867494;28;20688;-83
2023/09/23 13:14:29;;;;;;;3.50;1.40;;;;;;;23.98;34.64;98843.63;6867152;28;20238;-85
2023/09/23 13:17:51;;;;;;;3.70;1.60;;;;;;;23.81;35.56;98843.22;6867330;28;20225;-85
2023/09/23 13:21:12;;;;;;;3.97;1.50;;;;;;;23.81;36.83;98825.88;6866674;28;20241;-85
2023/09/23 13:24:34;;;;;;;1.93;1.50;;;;;;;23.97;36.50;98847.50;6851436;28;20261;-85
2023/09/23 13:27:55;;;;;;;2.30;1.43;;;;;;;23.79;37.27;98847.38;6839324;29;20263;-86
2023/09/23 13:31:18;;;;;;;2.37;1.47;;;;;;;23.80;36.38;98852.59;6838394;29;20206;-85
2023/09/23 13:34:40;;;;;;;4.70;1.60;;;;;;;23.69;37.13;98842.78;6840886;29;20235;-85
2023/09/23 13:38:02;;;;;;;3.70;1.60;;;;;;;23.06;34.98;98774.19;6865126;28;20237;-84
2023/09/23 13:41:23;;;;;;;3.30;1.80;;;;;;;24.02;34.86;98858.44;6874128;28;20204;-85
2023/09/23 13:44:49;;;;;;;1.97;1.40;;;;;;;23.86;34.50;98856.13;6877902;28;20319;-83
2023/09/23 13:48:12;;;;;;;2.40;1.30;;;;;;;24.49;33.56;98843.91;6904010;28;20250;-83
2023/09/23 13:51:34;;;;;;;2.20;1.40;;;;;;;24.40;31.99;98856.69;6894620;28;20258;-84
2023/09/23 13:54:55;;;;;;;2.10;1.40;;;;;;;24.64;33.43;98855.59;6876191;28;20244;-84
2023/09/23 13:58:17;;;;;;;2.73;1.50;;;;;;;24.69;33.62;98862.97;6876241;28;20233;-83
2023/09/23 14:01:38;;;;;;;1.70;1.30;;;;;;;24.68;33.31;98861.34;6875464;28;20246;-85
2023/09/23 14:05:01;;;;;;;2.27;1.53;;;;;;;24.89;32.88;98860.78;6874484;28;20245;-85
2023/09/23 14:08:22;;;;;;;2.80;1.43;;;;;;;25.08;34.04;98861.63;6866813;28;20259;-84
2023/09/23 14:11:44;;;;;;;2.07;1.57;;;;;;;24.39;33.63;98805.44;6866455;28;20337;-84
2023/09/23 14:15:06;;;;;;;2.60;1.83;;;;;;;23.88;35.28;98807.94;6841888;28;20219;-84
2023/09/23 14:18:28;;;;;;;4.57;1.70;;;;;;;24.85;34.09;98869.97;6843707;29;20223;-84
2023/09/23 14:21:51;;;;;;;1.87;1.23;;;;;;;24.22;32.83;98860.19;6842762;29;20209;-84
2023/09/23 14:25:13;;;;;;;1.37;1.23;;;;;;;24.37;32.86;98874.63;6867521;28;20206;-83
2023/09/23 14:28:35;;;;;;;1.37;1.20;;;;;;;24.67;30.97;98879.81;6865799;28;20215;-87
2023/09/23 14:31:56;;;;;;;2.17;1.50;;;;;;;24.96;32.49;98877.00;6863162;28;20355;-88
2023/09/23 14:35:18;;;;;;;2.17;1.30;;;;;;;24.44;31.93;98883.38;6862310;28;20199;-88
2023/09/23 14:38:41;;;;;;;3.47;1.37;;;;;;;23.60;33.14;98797.69;6862122;28;20325;-88
2023/09/23 14:42:03;;;;;;;1.20;1.03;;;;;;;24.03;33.11;98887.69;6860130;28;20209;-88
2023/09/23 14:45:24;;;;;;;2.20;1.37;;;;;;;23.49;33.30;98778.81;6862848;28;20730;-87
2023/09/23 14:48:46;;;;;;;1.50;1.20;;;;;;;23.99;32.96;98826.00;6863934;28;20564;-87
2023/09/23 14:52:08;;;;;;;1.50;1.40;;;;;;;24.48;32.96;98900.97;6860998;28;20318;-87
2023/09/23 14:55:32;;;;;;;1.77;1.20;;;;;;;24.01;33.74;98906.41;6862277;28;20206;-87
2023/09/23 14:58:53;;;;;;;1.63;1.10;;;;;;;23.84;34.17;98913.41;6861961;28;20235;-86
2023/09/23 15:02:15;;;;;;;1.20;1.10;;;;;;;24.00;34.32;98918.53;6863373;28;20322;-86
2023/09/23 15:05:37;;;;;;;1.50;1.37;;;;;;;23.91;34.88;98914.78;6863037;28;20685;-86
2023/09/23 15:08:59;;;;;;;1.40;1.30;;;;;;;23.83;34.52;98915.34;6862835;28;20681;-87
2023/09/23 15:12:21;;;;;;;1.67;1.37;;;;;;;23.48;35.02;98920.31;6863363;28;20245;-86
2023/09/23 15:15:44;;;;;;;1.83;1.40;;;;;;;23.23;34.88;98860.75;6862860;28;20608;-86
2023/09/23 15:19:06;;;;;;;2.97;1.53;;;;;;;23.59;34.84;98927.38;6862824;28;20226;-86
2023/09/23 15:22:27;;;;;;;3.17;1.30;;;;;;;23.21;35.27;98906.16;6862019;28;20355;-86
2023/09/23 15:25:49;;;;;;;1.93;1.40;;;;;;;23.82;35.22;98944.00;6863283;28;20203;-86
2023/09/23 15:29:12;;;;;;;3.67;1.93;;;;;;;23.92;34.66;98924.69;6871439;28;20212;-87
2023/09/23 15:32:34;;;;;;;2.13;1.93;;;;;;;23.78;35.14;98939.34;6861005;28;20345;-86
2023/09/23 15:35:55;;;;;;;3.97;1.70;;;;;;;23.34;35.34;98922.84;6860453;28;20274;-86
2023/09/23 15:39:18;;;;;;;3.70;1.73;;;;;;;23.67;35.19;98941.34;6861653;28;20267;-85
2023/09/23 15:42:39;;;;;;;2.13;1.57;;;;;;;23.86;34.97;98942.31;6860611;28;20712;-86
2023/09/23 15:46:02;;;;;;;2.10;1.37;;;;;;;22.88;35.06;98869.16;6860966;28;20308;-87
2023/09/23 15:49:24;;;;;;;1.40;1.30;;;;;;;23.40;35.86;98962.16;6861134;28;20293;-86
2023/09/23 15:52:46;;;;;;;2.90;1.47;;;;;;;23.47;36.20;98949.75;6860598;28;20372;-87